sensor_id;sensor_type;location;lat;lon;timestamp;P1;durP1;ratioP1;P2;durP2;ratioP2
1402;SDS011;696;48.546;9.896;2024-03-22T00:00:06;0.40;;;0.40;;
1402;SDS011;696;48.546;9.896;2024-03-22T00:02:37;0.35;;;0.35;;
1402;SDS011;696;48.546;9.896;2024-03-22T00:05:03;0.30;;;0.30;;
1402;SDS011;696;48.546;9.896;2024-03-22T00:07:28;0.30;;;0.30;;
1402;SDS011;696;48.546;9.896;2024-03-22T00:09:54;0.40;;;0.40;;
1402;SDS011;696;48.546;9.896;2024-03-22T00:12:19;0.30;;;0.30;;
1402;SDS011;696;48.546;9.896;2024-03-22T00:14:44;0.35;;;0.35;;
1402;SDS011;696;48.546;9.896;2024-03-22T00:17:10;0.30;;;0.30;;
1402;SDS011;696;48.546;9.896;2024-03-22T00:19:35;0.40;;;0.40;;
1402;SDS011;696;48.546;9.896;2024-03-22T00:22:00;0.30;;;0.30;;
1402;SDS011;696;48.546;9.896;2024-03-22T00:24:26;0.30;;;0.30;;
1402;SDS011;696;48.546;9.896;2024-03-22T00:26:51;0.28;;;0.28;;
1402;SDS011;696;48.546;9.896;2024-03-22T00:29:16;0.30;;;0.30;;
1402;SDS011;696;48.546;9.896;2024-03-22T00:31:42;0.30;;;0.30;;
1402;SDS011;696;48.546;9.896;2024-03-22T00:34:07;0.30;;;0.30;;
1402;SDS011;696;48.546;9.896;2024-03-22T00:36:32;0.30;;;0.30;;
1402;SDS011;696;48.546;9.896;2024-03-22T00:38:58;0.40;;;0.40;;
1402;SDS011;696;48.546;9.896;2024-03-22T00:41:23;0.30;;;0.30;;
1402;SDS011;696;48.546;9.896;2024-03-22T00:43:49;0.30;;;0.30;;
1402;SDS011;696;48.546;9.896;2024-03-22T00:46:14;0.40;;;0.40;;
1402;SDS011;696;48.546;9.896;2024-03-22T00:48:39;0.30;;;0.30;;
1402;SDS011;696;48.546;9.896;2024-03-22T00:51:05;0.30;;;0.30;;
1402;SDS011;696;48.546;9.896;2024-03-22T00:53:30;0.30;;;0.30;;
1402;SDS011;696;48.546;9.896;2024-03-22T00:55:56;0.40;;;0.40;;
1402;SDS011;696;48.546;9.896;2024-03-22T00:58:23;0.30;;;0.30;;
1402;SDS011;696;48.546;9.896;2024-03-22T01:00:49;0.35;;;0.35;;
1402;SDS011;696;48.546;9.896;2024-03-22T01:03:14;0.40;;;0.40;;
1402;SDS011;696;48.546;9.896;2024-03-22T01:05:40;0.38;;;0.38;;
1402;SDS011;696;48.546;9.896;2024-03-22T01:08:07;0.40;;;0.40;;
1402;SDS011;696;48.546;9.896;2024-03-22T01:10:32;0.40;;;0.40;;
1402;SDS011;696;48.546;9.896;2024-03-22T01:12:58;0.30;;;0.30;;
1402;SDS011;696;48.546;9.896;2024-03-22T01:15:24;0.30;;;0.30;;
1402;SDS011;696;48.546;9.896;2024-03-22T01:17:50;0.30;;;0.30;;
1402;SDS011;696;48.546;9.896;2024-03-22T01:20:15;0.30;;;0.30;;
1402;SDS011;696;48.546;9.896;2024-03-22T01:22:41;0.30;;;0.30;;
1402;SDS011;696;48.546;9.896;2024-03-22T01:25:06;0.40;;;0.40;;
1402;SDS011;696;48.546;9.896;2024-03-22T01:27:32;0.40;;;0.40;;
1402;SDS011;696;48.546;9.896;2024-03-22T01:29:57;0.40;;;0.40;;
1402;SDS011;696;48.546;9.896;2024-03-22T01:32:22;0.30;;;0.30;;
1402;SDS011;696;48.546;9.896;2024-03-22T01:34:48;0.40;;;0.40;;
1402;SDS011;696;48.546;9.896;2024-03-22T01:37:13;0.30;;;0.30;;
1402;SDS011;696;48.546;9.896;2024-03-22T01:39:38;0.40;;;0.40;;
1402;SDS011;696;48.546;9.896;2024-03-22T01:42:04;0.30;;;0.30;;
1402;SDS011;696;48.546;9.896;2024-03-22T01:44:31;0.30;;;0.30;;
1402;SDS011;696;48.546;9.896;2024-03-22T01:46:56;0.30;;;0.30;;
1402;SDS011;696;48.546;9.896;2024-03-22T01:49:22;0.30;;;0.30;;
1402;SDS011;696;48.546;9.896;2024-03-22T01:51:48;0.43;;;0.43;;
1402;SDS011;696;48.546;9.896;2024-03-22T01:54:14;0.40;;;0.40;;
1402;SDS011;696;48.546;9.896;2024-03-22T01:56:40;0.30;;;0.30;;
1402;SDS011;696;48.546;9.896;2024-03-22T01:59:06;0.30;;;0.30;;
1402;SDS011;696;48.546;9.896;2024-03-22T02:01:31;0.30;;;0.30;;
1402;SDS011;696;48.546;9.896;2024-03-22T02:03:57;0.30;;;0.30;;
1402;SDS011;696;48.546;9.896;2024-03-22T02:06:22;0.40;;;0.40;;
1402;SDS011;696;48.546;9.896;2024-03-22T02:08:48;0.38;;;0.38;;
1402;SDS011;696;48.546;9.896;2024-03-22T02:11:13;0.40;;;0.40;;
1402;SDS011;696;48.546;9.896;2024-03-22T02:13:39;0.32;;;0.32;;
1402;SDS011;696;48.546;9.896;2024-03-22T02:16:04;0.40;;;0.40;;
1402;SDS011;696;48.546;9.896;2024-03-22T02:18:30;0.40;;;0.40;;
1402;SDS011;696;48.546;9.896;2024-03-22T02:20:56;0.40;;;0.40;;
1402;SDS011;696;48.546;9.896;2024-03-22T02:23:43;0.40;;;0.40;;
1402;SDS011;696;48.546;9.896;2024-03-22T02:26:07;0.30;;;0.30;;
1402;SDS011;696;48.546;9.896;2024-03-22T02:28:33;0.30;;;0.30;;
1402;SDS011;696;48.546;9.896;2024-03-22T02:30:59;0.40;;;0.40;;
1402;SDS011;696;48.546;9.896;2024-03-22T02:33:25;0.30;;;0.30;;
1402;SDS011;696;48.546;9.896;2024-03-22T02:35:51;0.40;;;0.40;;
1402;SDS011;696;48.546;9.896;2024-03-22T02:38:16;0.40;;;0.40;;
1402;SDS011;696;48.546;9.896;2024-03-22T02:40:45;0.40;;;0.40;;
1402;SDS011;696;48.546;9.896;2024-03-22T02:43:12;0.40;;;0.40;;
1402;SDS011;696;48.546;9.896;2024-03-22T02:45:37;0.30;;;0.30;;
1402;SDS011;696;48.546;9.896;2024-03-22T02:48:03;0.40;;;0.40;;
1402;SDS011;696;48.546;9.896;2024-03-22T02:50:32;0.30;;;0.30;;
1402;SDS011;696;48.546;9.896;2024-03-22T02:53:01;0.50;;;0.50;;
1402;SDS011;696;48.546;9.896;2024-03-22T02:55:26;0.40;;;0.40;;
1402;SDS011;696;48.546;9.896;2024-03-22T02:57:51;0.40;;;0.40;;
1402;SDS011;696;48.546;9.896;2024-03-22T03:00:17;0.40;;;0.40;;
1402;SDS011;696;48.546;9.896;2024-03-22T03:02:43;0.40;;;0.40;;
1402;SDS011;696;48.546;9.896;2024-03-22T03:05:08;0.40;;;0.40;;
1402;SDS011;696;48.546;9.896;2024-03-22T03:07:34;0.40;;;0.40;;
1402;SDS011;696;48.546;9.896;2024-03-22T03:10:00;0.40;;;0.40;;
1402;SDS011;696;48.546;9.896;2024-03-22T03:12:25;0.40;;;0.40;;
1402;SDS011;696;48.546;9.896;2024-03-22T03:14:51;0.50;;;0.50;;
1402;SDS011;696;48.546;9.896;2024-03-22T03:17:16;0.40;;;0.40;;
1402;SDS011;696;48.546;9.896;2024-03-22T03:19:41;0.30;;;0.30;;
1402;SDS011;696;48.546;9.896;2024-03-22T03:22:07;0.45;;;0.45;;
1402;SDS011;696;48.546;9.896;2024-03-22T03:24:32;0.40;;;0.40;;
1402;SDS011;696;48.546;9.896;2024-03-22T03:26:57;0.40;;;0.40;;
1402;SDS011;696;48.546;9.896;2024-03-22T03:29:23;0.40;;;0.40;;
1402;SDS011;696;48.546;9.896;2024-03-22T03:31:48;0.47;;;0.47;;
1402;SDS011;696;48.546;9.896;2024-03-22T03:34:14;0.40;;;0.40;;
1402;SDS011;696;48.546;9.896;2024-03-22T03:36:39;0.50;;;0.50;;
1402;SDS011;696;48.546;9.896;2024-03-22T03:39:04;0.38;;;0.38;;
1402;SDS011;696;48.546;9.896;2024-03-22T03:41:30;0.40;;;0.40;;
1402;SDS011;696;48.546;9.896;2024-03-22T03:43:55;0.40;;;0.40;;
1402;SDS011;696;48.546;9.896;2024-03-22T03:46:21;0.40;;;0.40;;
1402;SDS011;696;48.546;9.896;2024-03-22T03:48:46;0.50;;;0.50;;
1402;SDS011;696;48.546;9.896;2024-03-22T03:51:11;0.40;;;0.40;;
1402;SDS011;696;48.546;9.896;2024-03-22T03:53:37;0.40;;;0.40;;
1402;SDS011;696;48.546;9.896;2024-03-22T03:56:02;0.50;;;0.50;;
1402;SDS011;696;48.546;9.896;2024-03-22T03:58:27;0.40;;;0.40;;
1402;SDS011;696;48.546;9.896;2024-03-22T04:00:53;0.43;;;0.43;;
1402;SDS011;696;48.546;9.896;2024-03-22T04:03:18;0.45;;;0.45;;
1402;SDS011;696;48.546;9.896;2024-03-22T04:05:44;0.40;;;0.40;;
1402;SDS011;696;48.546;9.896;2024-03-22T04:08:09;0.30;;;0.30;;
1402;SDS011;696;48.546;9.896;2024-03-22T04:10:34;0.40;;;0.40;;
1402;SDS011;696;48.546;9.896;2024-03-22T04:13:00;0.40;;;0.40;;
1402;SDS011;696;48.546;9.896;2024-03-22T04:15:25;0.40;;;0.40;;
1402;SDS011;696;48.546;9.896;2024-03-22T04:17:50;0.40;;;0.40;;
1402;SDS011;696;48.546;9.896;2024-03-22T04:20:16;0.40;;;0.40;;
1402;SDS011;696;48.546;9.896;2024-03-22T04:22:41;0.35;;;0.35;;
1402;SDS011;696;48.546;9.896;2024-03-22T04:25:06;0.40;;;0.40;;
1402;SDS011;696;48.546;9.896;2024-03-22T04:27:35;0.40;;;0.40;;
1402;SDS011;696;48.546;9.896;2024-03-22T04:30:01;0.40;;;0.40;;
1402;SDS011;696;48.546;9.896;2024-03-22T04:32:27;0.30;;;0.30;;
1402;SDS011;696;48.546;9.896;2024-03-22T04:34:52;0.45;;;0.45;;
1402;SDS011;696;48.546;9.896;2024-03-22T04:37:19;0.38;;;0.38;;
1402;SDS011;696;48.546;9.896;2024-03-22T04:39:45;0.38;;;0.38;;
1402;SDS011;696;48.546;9.896;2024-03-22T04:42:11;0.47;;;0.47;;
1402;SDS011;696;48.546;9.896;2024-03-22T04:44:36;0.40;;;0.40;;
1402;SDS011;696;48.546;9.896;2024-03-22T04:47:01;0.38;;;0.38;;
1402;SDS011;696;48.546;9.896;2024-03-22T04:49:27;0.40;;;0.40;;
1402;SDS011;696;48.546;9.896;2024-03-22T04:51:52;0.43;;;0.43;;
1402;SDS011;696;48.546;9.896;2024-03-22T04:54:17;0.40;;;0.40;;
1402;SDS011;696;48.546;9.896;2024-03-22T04:56:43;0.40;;;0.40;;
1402;SDS011;696;48.546;9.896;2024-03-22T04:59:08;0.40;;;0.40;;
1402;SDS011;696;48.546;9.896;2024-03-22T05:01:33;0.32;;;0.32;;
1402;SDS011;696;48.546;9.896;2024-03-22T05:03:59;0.40;;;0.40;;
1402;SDS011;696;48.546;9.896;2024-03-22T05:06:24;0.40;;;0.40;;
1402;SDS011;696;48.546;9.896;2024-03-22T05:08:49;0.40;;;0.40;;
1402;SDS011;696;48.546;9.896;2024-03-22T05:11:15;0.30;;;0.30;;
1402;SDS011;696;48.546;9.896;2024-03-22T05:13:40;0.40;;;0.40;;
1402;SDS011;696;48.546;9.896;2024-03-22T05:16:06;0.50;;;0.50;;
1402;SDS011;696;48.546;9.896;2024-03-22T05:18:32;0.47;;;0.47;;
1402;SDS011;696;48.546;9.896;2024-03-22T05:20:57;0.47;;;0.47;;
1402;SDS011;696;48.546;9.896;2024-03-22T05:23:22;0.40;;;0.40;;
1402;SDS011;696;48.546;9.896;2024-03-22T05:25:48;0.40;;;0.40;;
1402;SDS011;696;48.546;9.896;2024-03-22T05:28:13;0.40;;;0.40;;
1402;SDS011;696;48.546;9.896;2024-03-22T05:30:38;0.40;;;0.40;;
1402;SDS011;696;48.546;9.896;2024-03-22T05:33:04;0.40;;;0.40;;
1402;SDS011;696;48.546;9.896;2024-03-22T05:35:29;0.40;;;0.40;;
1402;SDS011;696;48.546;9.896;2024-03-22T05:37:55;0.47;;;0.47;;
1402;SDS011;696;48.546;9.896;2024-03-22T05:40:21;0.40;;;0.40;;
1402;SDS011;696;48.546;9.896;2024-03-22T05:42:46;0.40;;;0.40;;
1402;SDS011;696;48.546;9.896;2024-03-22T05:45:11;0.40;;;0.40;;
1402;SDS011;696;48.546;9.896;2024-03-22T05:47:37;0.50;;;0.50;;
1402;SDS011;696;48.546;9.896;2024-03-22T05:50:03;0.30;;;0.30;;
1402;SDS011;696;48.546;9.896;2024-03-22T05:52:29;0.40;;;0.40;;
1402;SDS011;696;48.546;9.896;2024-03-22T05:54:54;0.38;;;0.38;;
1402;SDS011;696;48.546;9.896;2024-03-22T05:57:20;0.50;;;0.50;;
1402;SDS011;696;48.546;9.896;2024-03-22T05:59:46;0.40;;;0.40;;
1402;SDS011;696;48.546;9.896;2024-03-22T06:02:11;0.40;;;0.40;;
1402;SDS011;696;48.546;9.896;2024-03-22T06:04:37;0.30;;;0.30;;
1402;SDS011;696;48.546;9.896;2024-03-22T06:07:02;0.40;;;0.40;;
1402;SDS011;696;48.546;9.896;2024-03-22T06:09:29;0.30;;;0.30;;
1402;SDS011;696;48.546;9.896;2024-03-22T06:12:10;0.40;;;0.40;;
1402;SDS011;696;48.546;9.896;2024-03-22T06:14:36;0.40;;;0.40;;
1402;SDS011;696;48.546;9.896;2024-03-22T06:17:03;0.35;;;0.35;;
1402;SDS011;696;48.546;9.896;2024-03-22T06:19:28;0.35;;;0.35;;
1402;SDS011;696;48.546;9.896;2024-03-22T06:21:54;0.38;;;0.38;;
1402;SDS011;696;48.546;9.896;2024-03-22T06:24:19;0.30;;;0.30;;
1402;SDS011;696;48.546;9.896;2024-03-22T06:26:44;0.30;;;0.30;;
1402;SDS011;696;48.546;9.896;2024-03-22T06:29:10;0.43;;;0.43;;
1402;SDS011;696;48.546;9.896;2024-03-22T06:31:35;0.35;;;0.35;;
1402;SDS011;696;48.546;9.896;2024-03-22T06:34:01;0.30;;;0.30;;
1402;SDS011;696;48.546;9.896;2024-03-22T06:36:30;0.40;;;0.40;;
1402;SDS011;696;48.546;9.896;2024-03-22T06:38:57;0.43;;;0.43;;
1402;SDS011;696;48.546;9.896;2024-03-22T06:41:22;0.40;;;0.40;;
1402;SDS011;696;48.546;9.896;2024-03-22T06:43:47;0.40;;;0.40;;
1402;SDS011;696;48.546;9.896;2024-03-22T06:46:13;0.30;;;0.30;;
1402;SDS011;696;48.546;9.896;2024-03-22T06:48:38;0.40;;;0.40;;
1402;SDS011;696;48.546;9.896;2024-03-22T06:51:03;0.30;;;0.30;;
1402;SDS011;696;48.546;9.896;2024-03-22T06:53:29;0.40;;;0.40;;
1402;SDS011;696;48.546;9.896;2024-03-22T06:55:54;0.30;;;0.30;;
1402;SDS011;696;48.546;9.896;2024-03-22T06:58:19;0.30;;;0.30;;
1402;SDS011;696;48.546;9.896;2024-03-22T07:00:45;0.30;;;0.30;;
1402;SDS011;696;48.546;9.896;2024-03-22T07:03:10;0.30;;;0.30;;
1402;SDS011;696;48.546;9.896;2024-03-22T07:05:35;0.30;;;0.30;;
1402;SDS011;696;48.546;9.896;2024-03-22T07:08:01;0.30;;;0.30;;
1402;SDS011;696;48.546;9.896;2024-03-22T07:10:26;0.30;;;0.30;;
1402;SDS011;696;48.546;9.896;2024-03-22T07:12:53;0.30;;;0.30;;
1402;SDS011;696;48.546;9.896;2024-03-22T07:15:24;0.20;;;0.20;;
1402;SDS011;696;48.546;9.896;2024-03-22T07:17:50;0.25;;;0.25;;
1402;SDS011;696;48.546;9.896;2024-03-22T07:20:16;0.20;;;0.20;;
1402;SDS011;696;48.546;9.896;2024-03-22T07:22:42;0.30;;;0.30;;
1402;SDS011;696;48.546;9.896;2024-03-22T07:25:07;0.30;;;0.30;;
1402;SDS011;696;48.546;9.896;2024-03-22T07:27:34;0.25;;;0.25;;
1402;SDS011;696;48.546;9.896;2024-03-22T07:30:00;0.30;;;0.30;;
1402;SDS011;696;48.546;9.896;2024-03-22T07:32:26;0.30;;;0.30;;
1402;SDS011;696;48.546;9.896;2024-03-22T07:34:51;0.20;;;0.20;;
1402;SDS011;696;48.546;9.896;2024-03-22T07:37:16;0.20;;;0.20;;
1402;SDS011;696;48.546;9.896;2024-03-22T07:39:42;0.20;;;0.20;;
1402;SDS011;696;48.546;9.896;2024-03-22T07:42:07;0.20;;;0.20;;
1402;SDS011;696;48.546;9.896;2024-03-22T07:44:33;0.20;;;0.20;;
1402;SDS011;696;48.546;9.896;2024-03-22T07:46:58;0.20;;;0.20;;
1402;SDS011;696;48.546;9.896;2024-03-22T07:49:23;0.20;;;0.20;;
1402;SDS011;696;48.546;9.896;2024-03-22T07:51:49;0.28;;;0.28;;
1402;SDS011;696;48.546;9.896;2024-03-22T07:54:14;0.20;;;0.20;;
1402;SDS011;696;48.546;9.896;2024-03-22T07:56:39;0.20;;;0.20;;
1402;SDS011;696;48.546;9.896;2024-03-22T07:59:05;0.20;;;0.20;;
1402;SDS011;696;48.546;9.896;2024-03-22T08:01:30;0.20;;;0.20;;
1402;SDS011;696;48.546;9.896;2024-03-22T08:03:56;0.20;;;0.20;;
1402;SDS011;696;48.546;9.896;2024-03-22T08:06:21;0.20;;;0.20;;
1402;SDS011;696;48.546;9.896;2024-03-22T08:08:46;0.20;;;0.20;;
1402;SDS011;696;48.546;9.896;2024-03-22T08:11:12;0.10;;;0.10;;
1402;SDS011;696;48.546;9.896;2024-03-22T08:13:37;0.15;;;0.15;;
1402;SDS011;696;48.546;9.896;2024-03-22T08:16:03;0.17;;;0.17;;
1402;SDS011;696;48.546;9.896;2024-03-22T08:18:29;0.20;;;0.20;;
1402;SDS011;696;48.546;9.896;2024-03-22T08:20:54;0.10;;;0.10;;
1402;SDS011;696;48.546;9.896;2024-03-22T08:23:20;0.20;;;0.20;;
1402;SDS011;696;48.546;9.896;2024-03-22T08:25:47;0.10;;;0.10;;
1402;SDS011;696;48.546;9.896;2024-03-22T08:28:13;0.20;;;0.20;;
1402;SDS011;696;48.546;9.896;2024-03-22T08:30:39;0.10;;;0.10;;
1402;SDS011;696;48.546;9.896;2024-03-22T08:33:04;0.20;;;0.20;;
1402;SDS011;696;48.546;9.896;2024-03-22T08:35:30;0.10;;;0.10;;
1402;SDS011;696;48.546;9.896;2024-03-22T08:37:55;0.10;;;0.10;;
1402;SDS011;696;48.546;9.896;2024-03-22T08:40:21;0.10;;;0.10;;
1402;SDS011;696;48.546;9.896;2024-03-22T08:42:46;0.10;;;0.10;;
1402;SDS011;696;48.546;9.896;2024-03-22T08:45:12;0.13;;;0.13;;
1402;SDS011;696;48.546;9.896;2024-03-22T08:47:37;0.10;;;0.10;;
1402;SDS011;696;48.546;9.896;2024-03-22T08:50:03;0.10;;;0.10;;
1402;SDS011;696;48.546;9.896;2024-03-22T08:52:28;0.20;;;0.20;;
1402;SDS011;696;48.546;9.896;2024-03-22T08:54:55;0.10;;;0.10;;
1402;SDS011;696;48.546;9.896;2024-03-22T08:57:20;0.10;;;0.10;;
1402;SDS011;696;48.546;9.896;2024-03-22T08:59:47;0.10;;;0.10;;
1402;SDS011;696;48.546;9.896;2024-03-22T09:02:12;0.10;;;0.10;;
1402;SDS011;696;48.546;9.896;2024-03-22T09:04:38;0.10;;;0.10;;
1402;SDS011;696;48.546;9.896;2024-03-22T09:07:04;0.10;;;0.10;;
1402;SDS011;696;48.546;9.896;2024-03-22T09:09:29;0.10;;;0.10;;
1402;SDS011;696;48.546;9.896;2024-03-22T09:11:55;0.10;;;0.10;;
1402;SDS011;696;48.546;9.896;2024-03-22T09:14:20;0.10;;;0.10;;
1402;SDS011;696;48.546;9.896;2024-03-22T09:16:45;0.10;;;0.10;;
1402;SDS011;696;48.546;9.896;2024-03-22T09:19:11;0.10;;;0.10;;
1402;SDS011;696;48.546;9.896;2024-03-22T09:21:36;0.10;;;0.10;;
1402;SDS011;696;48.546;9.896;2024-03-22T09:24:02;0.10;;;0.10;;
1402;SDS011;696;48.546;9.896;2024-03-22T09:26:31;0.20;;;0.20;;
1402;SDS011;696;48.546;9.896;2024-03-22T09:28:57;0.10;;;0.10;;
1402;SDS011;696;48.546;9.896;2024-03-22T09:31:23;0.10;;;0.10;;
1402;SDS011;696;48.546;9.896;2024-03-22T09:33:48;0.10;;;0.10;;
1402;SDS011;696;48.546;9.896;2024-03-22T09:36:14;0.10;;;0.10;;
1402;SDS011;696;48.546;9.896;2024-03-22T09:38:39;0.10;;;0.10;;
1402;SDS011;696;48.546;9.896;2024-03-22T09:41:04;0.10;;;0.10;;
1402;SDS011;696;48.546;9.896;2024-03-22T09:43:30;0.20;;;0.20;;
1402;SDS011;696;48.546;9.896;2024-03-22T09:45:55;0.10;;;0.10;;
1402;SDS011;696;48.546;9.896;2024-03-22T09:48:21;0.10;;;0.10;;
1402;SDS011;696;48.546;9.896;2024-03-22T09:50:48;0.20;;;0.20;;
1402;SDS011;696;48.546;9.896;2024-03-22T09:53:16;0.10;;;0.10;;
1402;SDS011;696;48.546;9.896;2024-03-22T09:55:43;0.10;;;0.10;;
1402;SDS011;696;48.546;9.896;2024-03-22T09:58:10;0.10;;;0.10;;
1402;SDS011;696;48.546;9.896;2024-03-22T10:00:35;0.10;;;0.10;;
1402;SDS011;696;48.546;9.896;2024-03-22T10:03:01;0.10;;;0.10;;
1402;SDS011;696;48.546;9.896;2024-03-22T10:05:28;0.10;;;0.10;;
1402;SDS011;696;48.546;9.896;2024-03-22T10:07:54;0.10;;;0.10;;
1402;SDS011;696;48.546;9.896;2024-03-22T10:10:19;0.10;;;0.10;;
1402;SDS011;696;48.546;9.896;2024-03-22T10:12:46;0.05;;;0.05;;
1402;SDS011;696;48.546;9.896;2024-03-22T10:15:11;0.10;;;0.10;;
1402;SDS011;696;48.546;9.896;2024-03-22T10:17:37;0.10;;;0.10;;
1402;SDS011;696;48.546;9.896;2024-03-22T10:20:03;0.10;;;0.10;;
1402;SDS011;696;48.546;9.896;2024-03-22T10:22:31;0.13;;;0.13;;
1402;SDS011;696;48.546;9.896;2024-03-22T10:24:56;0.10;;;0.10;;
1402;SDS011;696;48.546;9.896;2024-03-22T10:27:26;0.10;;;0.10;;
1402;SDS011;696;48.546;9.896;2024-03-22T10:29:52;0.10;;;0.10;;
1402;SDS011;696;48.546;9.896;2024-03-22T10:32:17;0.10;;;0.10;;
1402;SDS011;696;48.546;9.896;2024-03-22T10:34:43;0.15;;;0.15;;
1402;SDS011;696;48.546;9.896;2024-03-22T10:37:10;0.10;;;0.10;;
1402;SDS011;696;48.546;9.896;2024-03-22T10:39:39;0.15;;;0.15;;
1402;SDS011;696;48.546;9.896;2024-03-22T10:42:05;0.10;;;0.10;;
1402;SDS011;696;48.546;9.896;2024-03-22T10:44:31;0.10;;;0.10;;
1402;SDS011;696;48.546;9.896;2024-03-22T10:46:56;0.17;;;0.17;;
1402;SDS011;696;48.546;9.896;2024-03-22T10:49:25;0.10;;;0.10;;
1402;SDS011;696;48.546;9.896;2024-03-22T10:51:59;0.13;;;0.13;;
1402;SDS011;696;48.546;9.896;2024-03-22T10:54:28;0.10;;;0.10;;
1402;SDS011;696;48.546;9.896;2024-03-22T10:56:59;0.10;;;0.10;;
1402;SDS011;696;48.546;9.896;2024-03-22T10:59:24;0.10;;;0.10;;
1402;SDS011;696;48.546;9.896;2024-03-22T11:01:50;0.10;;;0.10;;
1402;SDS011;696;48.546;9.896;2024-03-22T11:04:16;0.10;;;0.10;;
1402;SDS011;696;48.546;9.896;2024-03-22T11:06:47;0.10;;;0.10;;
1402;SDS011;696;48.546;9.896;2024-03-22T11:09:18;0.10;;;0.10;;
1402;SDS011;696;48.546;9.896;2024-03-22T11:11:46;0.10;;;0.10;;
1402;SDS011;696;48.546;9.896;2024-03-22T11:14:12;0.10;;;0.10;;
1402;SDS011;696;48.546;9.896;2024-03-22T11:16:37;0.10;;;0.10;;
1402;SDS011;696;48.546;9.896;2024-03-22T11:19:02;0.00;;;0.00;;
1402;SDS011;696;48.546;9.896;2024-03-22T11:21:32;0.10;;;0.10;;
1402;SDS011;696;48.546;9.896;2024-03-22T11:24:00;0.08;;;0.08;;
1402;SDS011;696;48.546;9.896;2024-03-22T11:26:25;0.00;;;0.00;;
1402;SDS011;696;48.546;9.896;2024-03-22T11:28:51;0.10;;;0.10;;
1402;SDS011;696;48.546;9.896;2024-03-22T11:31:16;0.10;;;0.10;;
1402;SDS011;696;48.546;9.896;2024-03-22T11:33:41;0.00;;;0.00;;
1402;SDS011;696;48.546;9.896;2024-03-22T11:36:07;0.10;;;0.10;;
1402;SDS011;696;48.546;9.896;2024-03-22T11:38:34;0.10;;;0.10;;
1402;SDS011;696;48.546;9.896;2024-03-22T11:40:59;0.05;;;0.05;;
1402;SDS011;696;48.546;9.896;2024-03-22T11:43:27;0.10;;;0.10;;
1402;SDS011;696;48.546;9.896;2024-03-22T11:45:53;0.00;;;0.00;;
1402;SDS011;696;48.546;9.896;2024-03-22T11:48:20;0.10;;;0.10;;
1402;SDS011;696;48.546;9.896;2024-03-22T11:50:46;0.10;;;0.10;;
1402;SDS011;696;48.546;9.896;2024-03-22T11:53:11;0.10;;;0.10;;
1402;SDS011;696;48.546;9.896;2024-03-22T11:55:36;0.10;;;0.10;;
1402;SDS011;696;48.546;9.896;2024-03-22T11:58:02;0.10;;;0.10;;
1402;SDS011;696;48.546;9.896;2024-03-22T12:00:27;0.10;;;0.10;;
1402;SDS011;696;48.546;9.896;2024-03-22T12:02:53;0.00;;;0.00;;
1402;SDS011;696;48.546;9.896;2024-03-22T12:05:18;0.10;;;0.10;;
1402;SDS011;696;48.546;9.896;2024-03-22T12:07:44;0.00;;;0.00;;
1402;SDS011;696;48.546;9.896;2024-03-22T12:10:09;0.00;;;0.00;;
1402;SDS011;696;48.546;9.896;2024-03-22T12:12:35;0.00;;;0.00;;
1402;SDS011;696;48.546;9.896;2024-03-22T12:15:01;0.00;;;0.00;;
1402;SDS011;696;48.546;9.896;2024-03-22T12:17:27;0.00;;;0.00;;
1402;SDS011;696;48.546;9.896;2024-03-22T12:19:52;0.00;;;0.00;;
1402;SDS011;696;48.546;9.896;2024-03-22T12:22:18;0.00;;;0.00;;
1402;SDS011;696;48.546;9.896;2024-03-22T12:24:43;0.00;;;0.00;;
1402;SDS011;696;48.546;9.896;2024-03-22T12:27:08;0.00;;;0.00;;
1402;SDS011;696;48.546;9.896;2024-03-22T12:29:34;0.00;;;0.00;;
1402;SDS011;696;48.546;9.896;2024-03-22T12:32:00;0.00;;;0.00;;
1402;SDS011;696;48.546;9.896;2024-03-22T12:34:27;0.00;;;0.00;;
1402;SDS011;696;48.546;9.896;2024-03-22T12:36:54;0.00;;;0.00;;
1402;SDS011;696;48.546;9.896;2024-03-22T12:39:19;0.00;;;0.00;;
1402;SDS011;696;48.546;9.896;2024-03-22T12:41:45;0.00;;;0.00;;
1402;SDS011;696;48.546;9.896;2024-03-22T12:44:10;0.00;;;0.00;;
1402;SDS011;696;48.546;9.896;2024-03-22T12:46:35;0.00;;;0.00;;
1402;SDS011;696;48.546;9.896;2024-03-22T12:49:01;0.00;;;0.00;;
1402;SDS011;696;48.546;9.896;2024-03-22T12:51:26;0.00;;;0.00;;
1402;SDS011;696;48.546;9.896;2024-03-22T12:53:51;0.00;;;0.00;;
1402;SDS011;696;48.546;9.896;2024-03-22T12:56:17;0.00;;;0.00;;
1402;SDS011;696;48.546;9.896;2024-03-22T12:58:42;0.00;;;0.00;;
1402;SDS011;696;48.546;9.896;2024-03-22T13:01:08;0.00;;;0.00;;
1402;SDS011;696;48.546;9.896;2024-03-22T13:03:35;0.00;;;0.00;;
1402;SDS011;696;48.546;9.896;2024-03-22T13:06:01;0.00;;;0.00;;
1402;SDS011;696;48.546;9.896;2024-03-22T13:08:26;0.00;;;0.00;;
1402;SDS011;696;48.546;9.896;2024-03-22T13:10:52;0.00;;;0.00;;
1402;SDS011;696;48.546;9.896;2024-03-22T13:13:17;0.00;;;0.00;;
1402;SDS011;696;48.546;9.896;2024-03-22T13:15:43;0.00;;;0.00;;
1402;SDS011;696;48.546;9.896;2024-03-22T13:18:08;0.00;;;0.00;;
1402;SDS011;696;48.546;9.896;2024-03-22T13:20:36;0.00;;;0.00;;
1402;SDS011;696;48.546;9.896;2024-03-22T13:23:02;0.00;;;0.00;;
1402;SDS011;696;48.546;9.896;2024-03-22T13:25:28;0.00;;;0.00;;
1402;SDS011;696;48.546;9.896;2024-03-22T13:27:53;0.00;;;0.00;;
1402;SDS011;696;48.546;9.896;2024-03-22T13:30:19;0.00;;;0.00;;
1402;SDS011;696;48.546;9.896;2024-03-22T13:32:44;0.00;;;0.00;;
1402;SDS011;696;48.546;9.896;2024-03-22T13:35:09;0.00;;;0.00;;
1402;SDS011;696;48.546;9.896;2024-03-22T13:37:35;0.00;;;0.00;;
1402;SDS011;696;48.546;9.896;2024-03-22T13:40:00;0.00;;;0.00;;
1402;SDS011;696;48.546;9.896;2024-03-22T13:42:26;0.00;;;0.00;;
1402;SDS011;696;48.546;9.896;2024-03-22T13:44:51;0.00;;;0.00;;
1402;SDS011;696;48.546;9.896;2024-03-22T13:47:17;0.00;;;0.00;;
1402;SDS011;696;48.546;9.896;2024-03-22T13:49:43;0.00;;;0.00;;
1402;SDS011;696;48.546;9.896;2024-03-22T13:52:08;0.00;;;0.00;;
1402;SDS011;696;48.546;9.896;2024-03-22T13:54:34;0.00;;;0.00;;
1402;SDS011;696;48.546;9.896;2024-03-22T13:56:59;0.00;;;0.00;;
1402;SDS011;696;48.546;9.896;2024-03-22T13:59:28;0.00;;;0.00;;
1402;SDS011;696;48.546;9.896;2024-03-22T14:01:54;0.00;;;0.00;;
1402;SDS011;696;48.546;9.896;2024-03-22T14:04:19;0.00;;;0.00;;
1402;SDS011;696;48.546;9.896;2024-03-22T14:06:45;0.00;;;0.00;;
1402;SDS011;696;48.546;9.896;2024-03-22T14:09:10;0.00;;;0.00;;
1402;SDS011;696;48.546;9.896;2024-03-22T14:11:38;0.00;;;0.00;;
1402;SDS011;696;48.546;9.896;2024-03-22T14:14:03;0.00;;;0.00;;
1402;SDS011;696;48.546;9.896;2024-03-22T14:16:29;0.00;;;0.00;;
1402;SDS011;696;48.546;9.896;2024-03-22T14:18:55;0.00;;;0.00;;
1402;SDS011;696;48.546;9.896;2024-03-22T14:21:20;0.00;;;0.00;;
1402;SDS011;696;48.546;9.896;2024-03-22T14:23:47;0.00;;;0.00;;
1402;SDS011;696;48.546;9.896;2024-03-22T14:26:12;0.00;;;0.00;;
1402;SDS011;696;48.546;9.896;2024-03-22T14:28:38;0.00;;;0.00;;
1402;SDS011;696;48.546;9.896;2024-03-22T14:31:05;0.00;;;0.00;;
1402;SDS011;696;48.546;9.896;2024-03-22T14:33:33;0.00;;;0.00;;
1402;SDS011;696;48.546;9.896;2024-03-22T14:36:02;0.00;;;0.00;;
1402;SDS011;696;48.546;9.896;2024-03-22T14:38:28;0.00;;;0.00;;
1402;SDS011;696;48.546;9.896;2024-03-22T14:40:54;0.00;;;0.00;;
1402;SDS011;696;48.546;9.896;2024-03-22T14:43:20;0.00;;;0.00;;
1402;SDS011;696;48.546;9.896;2024-03-22T14:45:45;0.00;;;0.00;;
1402;SDS011;696;48.546;9.896;2024-03-22T14:48:10;0.00;;;0.00;;
1402;SDS011;696;48.546;9.896;2024-03-22T14:50:36;0.00;;;0.00;;
1402;SDS011;696;48.546;9.896;2024-03-22T14:53:03;0.00;;;0.00;;
1402;SDS011;696;48.546;9.896;2024-03-22T14:55:29;0.00;;;0.00;;
1402;SDS011;696;48.546;9.896;2024-03-22T14:57:54;0.00;;;0.00;;
1402;SDS011;696;48.546;9.896;2024-03-22T15:00:20;0.00;;;0.00;;
1402;SDS011;696;48.546;9.896;2024-03-22T15:02:45;0.00;;;0.00;;
1402;SDS011;696;48.546;9.896;2024-03-22T15:05:12;0.00;;;0.00;;
1402;SDS011;696;48.546;9.896;2024-03-22T15:07:37;0.00;;;0.00;;
1402;SDS011;696;48.546;9.896;2024-03-22T15:10:03;0.00;;;0.00;;
1402;SDS011;696;48.546;9.896;2024-03-22T15:12:29;0.00;;;0.00;;
1402;SDS011;696;48.546;9.896;2024-03-22T15:14:55;0.00;;;0.00;;
1402;SDS011;696;48.546;9.896;2024-03-22T15:17:20;0.00;;;0.00;;
1402;SDS011;696;48.546;9.896;2024-03-22T15:19:49;0.00;;;0.00;;